sensor_id;sensor_type;location;lat;lon;timestamp;temperature;humidity
75688;HTU21D;64300;45.034;38.910;2023-02-23T00:01:57;2.20;109.81
75688;HTU21D;64300;45.034;38.910;2023-02-23T00:04:31;2.21;108.47
75688;HTU21D;64300;45.034;38.910;2023-02-23T00:06:57;2.25;108.69
75688;HTU21D;64300;45.034;38.910;2023-02-23T00:09:23;2.27;107.04
75688;HTU21D;64300;45.034;38.910;2023-02-23T00:11:56;2.28;107.13
75688;HTU21D;64300;45.034;38.910;2023-02-23T00:14:26;2.26;108.64
75688;HTU21D;64300;45.034;38.910;2023-02-23T00:16:54;2.28;107.10
75688;HTU21D;64300;45.034;38.910;2023-02-23T00:19:20;2.28;106.92
75688;HTU21D;64300;45.034;38.910;2023-02-23T00:21:49;2.29;106.63
75688;HTU21D;64300;45.034;38.910;2023-02-23T00:24:15;2.24;109.42
75688;HTU21D;64300;45.034;38.910;2023-02-23T00:26:44;2.28;107.96
75688;HTU21D;64300;45.034;38.910;2023-02-23T00:29:18;2.27;107.95
75688;HTU21D;64300;45.034;38.910;2023-02-23T00:31:46;2.29;107.20
75688;HTU21D;64300;45.034;38.910;2023-02-23T00:34:14;2.27;108.81
75688;HTU21D;64300;45.034;38.910;2023-02-23T00:36:41;2.30;107.14
75688;HTU21D;64300;45.034;38.910;2023-02-23T00:39:10;2.27;107.99
75688;HTU21D;64300;45.034;38.910;2023-02-23T00:41:57;2.28;106.67
75688;HTU21D;64300;45.034;38.910;2023-02-23T00:44:28;2.25;109.17
75688;HTU21D;64300;45.034;38.910;2023-02-23T00:46:54;2.26;108.19
75688;HTU21D;64300;45.034;38.910;2023-02-23T00:49:21;2.26;107.85
75688;HTU21D;64300;45.034;38.910;2023-02-23T00:51:48;2.27;107.15
75688;HTU21D;64300;45.034;38.910;2023-02-23T00:54:15;2.26;107.29
75688;HTU21D;64300;45.034;38.910;2023-02-23T00:56:41;2.21;108.76
75688;HTU21D;64300;45.034;38.910;2023-02-23T00:59:08;2.24;107.82
75688;HTU21D;64300;45.034;38.910;2023-02-23T01:01:34;2.29;106.75
75688;HTU21D;64300;45.034;38.910;2023-02-23T01:04:02;2.31;106.69
75688;HTU21D;64300;45.034;38.910;2023-02-23T01:06:29;2.32;106.56
75688;HTU21D;64300;45.034;38.910;2023-02-23T01:08:56;2.29;106.75
75688;HTU21D;64300;45.034;38.910;2023-02-23T01:11:27;2.35;106.25
75688;HTU21D;64300;45.034;38.910;2023-02-23T01:13:55;2.36;106.01
75688;HTU21D;64300;45.034;38.910;2023-02-23T01:16:25;2.38;105.79
75688;HTU21D;64300;45.034;38.910;2023-02-23T01:18:54;2.41;105.63
75688;HTU21D;64300;45.034;38.910;2023-02-23T01:23:48;2.43;105.37
75688;HTU21D;64300;45.034;38.910;2023-02-23T01:26:27;2.43;105.24
75688;HTU21D;64300;45.034;38.910;2023-02-23T01:28:55;2.45;105.10
75688;HTU21D;64300;45.034;38.910;2023-02-23T01:31:23;2.44;104.95
75688;HTU21D;64300;45.034;38.910;2023-02-23T01:33:54;2.47;104.59
75688;HTU21D;64300;45.034;38.910;2023-02-23T01:36:20;2.41;102.18
75688;HTU21D;64300;45.034;38.910;2023-02-23T01:38:46;2.38;101.80
75688;HTU21D;64300;45.034;38.910;2023-02-23T01:41:14;2.40;103.05
75688;HTU21D;64300;45.034;38.910;2023-02-23T01:46:40;2.35;102.29
75688;HTU21D;64300;45.034;38.910;2023-02-23T01:49:09;2.26;99.92
75688;HTU21D;64300;45.034;38.910;2023-02-23T01:51:40;2.29;101.18
75688;HTU21D;64300;45.034;38.910;2023-02-23T01:54:14;2.28;101.92
75688;HTU21D;64300;45.034;38.910;2023-02-23T01:56:43;2.25;101.09
75688;HTU21D;64300;45.034;38.910;2023-02-23T01:59:12;2.25;101.04
75688;HTU21D;64300;45.034;38.910;2023-02-23T02:01:41;2.21;99.52
75688;HTU21D;64300;45.034;38.910;2023-02-23T02:04:08;2.17;101.06
75688;HTU21D;64300;45.034;38.910;2023-02-23T02:06:42;2.11;98.74
75688;HTU21D;64300;45.034;38.910;2023-02-23T02:09:13;2.17;100.87
75688;HTU21D;64300;45.034;38.910;2023-02-23T02:11:43;2.15;99.38
75688;HTU21D;64300;45.034;38.910;2023-02-23T02:14:17;2.09;99.48
75688;HTU21D;64300;45.034;38.910;2023-02-23T02:17:10;2.08;99.01
75688;HTU21D;64300;45.034;38.910;2023-02-23T02:25:50;2.05;99.63
75688;HTU21D;64300;45.034;38.910;2023-02-23T02:36:56;2.02;100.25
75688;HTU21D;64300;45.034;38.910;2023-02-23T02:42:36;2.06;100.20
75688;HTU21D;64300;45.034;38.910;2023-02-23T02:48:02;2.05;98.61
75688;HTU21D;64300;45.034;38.910;2023-02-23T02:50:48;2.07;100.00
75688;HTU21D;64300;45.034;38.910;2023-02-23T02:53:33;2.06;99.52
75688;HTU21D;64300;45.034;38.910;2023-02-23T02:56:02;2.06;98.58
75688;HTU21D;64300;45.034;38.910;2023-02-23T02:58:33;2.00;99.66
75688;HTU21D;64300;45.034;38.910;2023-02-23T03:01:06;1.97;99.46
75688;HTU21D;64300;45.034;38.910;2023-02-23T03:03:52;1.88;100.12
75688;HTU21D;64300;45.034;38.910;2023-02-23T03:06:42;1.90;100.21
75688;HTU21D;64300;45.034;38.910;2023-02-23T03:12:43;1.69;102.44
75688;HTU21D;64300;45.034;38.910;2023-02-23T03:15:40;1.68;101.79
75688;HTU21D;64300;45.034;38.910;2023-02-23T03:18:59;1.61;104.18
75688;HTU21D;64300;45.034;38.910;2023-02-23T03:24:59;1.49;105.65
75688;HTU21D;64300;45.034;38.910;2023-02-23T03:31:00;1.60;103.63
75688;HTU21D;64300;45.034;38.910;2023-02-23T03:37:00;1.42;101.20
75688;HTU21D;64300;45.034;38.910;2023-02-23T03:39:52;1.42;102.35
75688;HTU21D;64300;45.034;38.910;2023-02-23T03:42:39;1.46;102.86
75688;HTU21D;64300;45.034;38.910;2023-02-23T03:45:25;1.41;103.12
75688;HTU21D;64300;45.034;38.910;2023-02-23T03:48:12;1.34;101.08
75688;HTU21D;64300;45.034;38.910;2023-02-23T03:51:02;1.29;99.03
75688;HTU21D;64300;45.034;38.910;2023-02-23T03:54:02;1.27;102.42
75688;HTU21D;64300;45.034;38.910;2023-02-23T03:56:49;1.22;101.04
75688;HTU21D;64300;45.034;38.910;2023-02-23T03:59:46;1.13;99.71
75688;HTU21D;64300;45.034;38.910;2023-02-23T04:02:40;1.10;100.83
75688;HTU21D;64300;45.034;38.910;2023-02-23T04:05:27;1.03;100.84
75688;HTU21D;64300;45.034;38.910;2023-02-23T04:08:15;0.89;97.33
75688;HTU21D;64300;45.034;38.910;2023-02-23T04:11:27;0.90;98.47
75688;HTU21D;64300;45.034;38.910;2023-02-23T04:14:19;0.72;98.10
75688;HTU21D;64300;45.034;38.910;2023-02-23T04:16:49;0.72;97.34
75688;HTU21D;64300;45.034;38.910;2023-02-23T04:19:15;0.72;98.09
75688;HTU21D;64300;45.034;38.910;2023-02-23T04:21:41;0.72;97.42
75688;HTU21D;64300;45.034;38.910;2023-02-23T04:24:08;0.66;96.52
75688;HTU21D;64300;45.034;38.910;2023-02-23T04:26:40;0.68;96.61
75688;HTU21D;64300;45.034;38.910;2023-02-23T04:29:06;0.55;94.20
75688;HTU21D;64300;45.034;38.910;2023-02-23T04:31:32;0.60;95.15
75688;HTU21D;64300;45.034;38.910;2023-02-23T04:33:58;0.53;94.49
75688;HTU21D;64300;45.034;38.910;2023-02-23T04:36:24;0.45;93.83
75688;HTU21D;64300;45.034;38.910;2023-02-23T04:38:51;0.52;93.28
75688;HTU21D;64300;45.034;38.910;2023-02-23T04:41:17;0.44;89.79
75688;HTU21D;64300;45.034;38.910;2023-02-23T04:43:44;0.42;90.13
75688;HTU21D;64300;45.034;38.910;2023-02-23T04:46:10;0.37;90.57
75688;HTU21D;64300;45.034;38.910;2023-02-23T04:48:36;0.43;91.58
75688;HTU21D;64300;45.034;38.910;2023-02-23T04:51:01;0.36;115.89
75688;HTU21D;64300;45.034;38.910;2023-02-23T04:53:28;0.32;91.92
75688;HTU21D;64300;45.034;38.910;2023-02-23T04:55:54;0.33;90.73
75688;HTU21D;64300;45.034;38.910;2023-02-23T04:58:19;0.22;89.28
75688;HTU21D;64300;45.034;38.910;2023-02-23T05:00:46;0.17;86.93
75688;HTU21D;64300;45.034;38.910;2023-02-23T05:03:15;0.31;89.86
75688;HTU21D;64300;45.034;38.910;2023-02-23T05:05:42;0.33;87.28
75688;HTU21D;64300;45.034;38.910;2023-02-23T05:08:09;0.32;88.44
75688;HTU21D;64300;45.034;38.910;2023-02-23T05:10:38;0.31;85.40
75688;HTU21D;64300;45.034;38.910;2023-02-23T05:13:05;0.29;87.86
75688;HTU21D;64300;45.034;38.910;2023-02-23T05:15:30;0.33;88.80
75688;HTU21D;64300;45.034;38.910;2023-02-23T05:17:56;0.32;87.37
75688;HTU21D;64300;45.034;38.910;2023-02-23T05:20:22;0.21;83.68
75688;HTU21D;64300;45.034;38.910;2023-02-23T05:22:48;0.14;84.01
75688;HTU21D;64300;45.034;38.910;2023-02-23T05:25:14;0.10;84.07
75688;HTU21D;64300;45.034;38.910;2023-02-23T05:27:40;0.05;85.48
75688;HTU21D;64300;45.034;38.910;2023-02-23T05:30:06;0.09;83.06
75688;HTU21D;64300;45.034;38.910;2023-02-23T05:32:34;-0.02;85.00
75688;HTU21D;64300;45.034;38.910;2023-02-23T05:35:00;0.10;84.31
75688;HTU21D;64300;45.034;38.910;2023-02-23T05:37:27;0.12;85.65
75688;HTU21D;64300;45.034;38.910;2023-02-23T05:39:52;0.12;84.53
75688;HTU21D;64300;45.034;38.910;2023-02-23T05:42:18;-0.00;82.52
75688;HTU21D;64300;45.034;38.910;2023-02-23T05:44:44;-0.11;78.40
75688;HTU21D;64300;45.034;38.910;2023-02-23T05:47:10;-0.02;81.25
75688;HTU21D;64300;45.034;38.910;2023-02-23T05:49:36;0.02;79.49
75688;HTU21D;64300;45.034;38.910;2023-02-23T05:52:03;0.24;83.29
75688;HTU21D;64300;45.034;38.910;2023-02-23T05:54:29;0.23;81.23
75688;HTU21D;64300;45.034;38.910;2023-02-23T05:56:55;0.19;82.74
75688;HTU21D;64300;45.034;38.910;2023-02-23T05:59:21;0.25;83.88
75688;HTU21D;64300;45.034;38.910;2023-02-23T06:01:46;0.28;83.60
75688;HTU21D;64300;45.034;38.910;2023-02-23T06:04:12;0.37;81.97
75688;HTU21D;64300;45.034;38.910;2023-02-23T06:06:38;0.30;83.29
75688;HTU21D;64300;45.034;38.910;2023-02-23T06:09:04;0.25;82.20
75688;HTU21D;64300;45.034;38.910;2023-02-23T06:11:31;0.27;82.30
75688;HTU21D;64300;45.034;38.910;2023-02-23T06:13:58;0.47;82.12
75688;HTU21D;64300;45.034;38.910;2023-02-23T06:16:24;0.44;82.93
75688;HTU21D;64300;45.034;38.910;2023-02-23T06:18:50;0.38;82.81
75688;HTU21D;64300;45.034;38.910;2023-02-23T06:21:18;0.64;85.53
75688;HTU21D;64300;45.034;38.910;2023-02-23T06:23:45;0.58;85.65
75688;HTU21D;64300;45.034;38.910;2023-02-23T06:26:11;0.62;84.60
75688;HTU21D;64300;45.034;38.910;2023-02-23T06:28:36;0.39;84.34
75688;HTU21D;64300;45.034;38.910;2023-02-23T06:31:02;0.52;84.21
75688;HTU21D;64300;45.034;38.910;2023-02-23T06:33:28;0.35;84.78
75688;HTU21D;64300;45.034;38.910;2023-02-23T06:35:55;0.21;86.33
75688;HTU21D;64300;45.034;38.910;2023-02-23T06:38:21;0.13;118.99
75688;HTU21D;64300;45.034;38.910;2023-02-23T06:40:47;0.23;118.99
75688;HTU21D;64300;45.034;38.910;2023-02-23T06:43:13;0.35;118.99
75688;HTU21D;64300;45.034;38.910;2023-02-23T06:45:39;0.39;100.17
75688;HTU21D;64300;45.034;38.910;2023-02-23T06:48:05;0.17;100.83
75688;HTU21D;64300;45.034;38.910;2023-02-23T06:50:35;0.20;100.77
75688;HTU21D;64300;45.034;38.910;2023-02-23T06:53:01;0.08;103.06
75688;HTU21D;64300;45.034;38.910;2023-02-23T06:55:27;0.10;98.61
75688;HTU21D;64300;45.034;38.910;2023-02-23T06:57:53;-0.13;103.80
75688;HTU21D;64300;45.034;38.910;2023-02-23T07:00:19;-0.05;105.95
75688;HTU21D;64300;45.034;38.910;2023-02-23T07:02:45;0.06;103.47
75688;HTU21D;64300;45.034;38.910;2023-02-23T07:05:11;0.14;101.24
75688;HTU21D;64300;45.034;38.910;2023-02-23T07:07:37;0.15;96.68
75688;HTU21D;64300;45.034;38.910;2023-02-23T07:10:04;-0.17;90.98
75688;HTU21D;64300;45.034;38.910;2023-02-23T07:12:30;-0.03;94.70
75688;HTU21D;64300;45.034;38.910;2023-02-23T07:14:56;-0.25;93.59
75688;HTU21D;64300;45.034;38.910;2023-02-23T07:17:25;-0.28;94.04
75688;HTU21D;64300;45.034;38.910;2023-02-23T07:19:51;-0.23;96.07
75688;HTU21D;64300;45.034;38.910;2023-02-23T07:22:17;-0.21;94.38
75688;HTU21D;64300;45.034;38.910;2023-02-23T07:24:43;-0.17;94.55
75688;HTU21D;64300;45.034;38.910;2023-02-23T07:27:09;-0.24;92.71
75688;HTU21D;64300;45.034;38.910;2023-02-23T07:29:34;-0.27;87.22
75688;HTU21D;64300;45.034;38.910;2023-02-23T07:32:00;-0.36;88.69
75688;HTU21D;64300;45.034;38.910;2023-02-23T07:34:26;-0.41;88.44
75688;HTU21D;64300;45.034;38.910;2023-02-23T07:36:52;-0.23;90.57
75688;HTU21D;64300;45.034;38.910;2023-02-23T07:39:18;-0.46;86.58
75688;HTU21D;64300;45.034;38.910;2023-02-23T07:41:45;-0.38;86.46
75688;HTU21D;64300;45.034;38.910;2023-02-23T07:44:18;-0.21;88.51
75688;HTU21D;64300;45.034;38.910;2023-02-23T07:46:44;-0.06;88.10
75688;HTU21D;64300;45.034;38.910;2023-02-23T07:49:11;-0.03;86.53
75688;HTU21D;64300;45.034;38.910;2023-02-23T07:51:38;0.09;84.92
75688;HTU21D;64300;45.034;38.910;2023-02-23T07:54:05;0.28;88.37
75688;HTU21D;64300;45.034;38.910;2023-02-23T07:56:31;0.46;88.80
75688;HTU21D;64300;45.034;38.910;2023-02-23T07:58:57;0.67;88.74
75688;HTU21D;64300;45.034;38.910;2023-02-23T08:01:24;0.87;87.26
75688;HTU21D;64300;45.034;38.910;2023-02-23T08:03:49;0.99;80.33
75688;HTU21D;64300;45.034;38.910;2023-02-23T08:06:20;1.27;87.32
75688;HTU21D;64300;45.034;38.910;2023-02-23T08:08:46;1.50;83.94
75688;HTU21D;64300;45.034;38.910;2023-02-23T08:11:12;1.60;82.97
75688;HTU21D;64300;45.034;38.910;2023-02-23T08:13:38;1.68;82.63
75688;HTU21D;64300;45.034;38.910;2023-02-23T08:16:04;1.82;84.02
75688;HTU21D;64300;45.034;38.910;2023-02-23T08:18:30;1.86;80.14
75688;HTU21D;64300;45.034;38.910;2023-02-23T08:21:00;1.64;77.22
75688;HTU21D;64300;45.034;38.910;2023-02-23T08:23:29;1.49;71.44
75688;HTU21D;64300;45.034;38.910;2023-02-23T08:25:55;1.64;79.91
75688;HTU21D;64300;45.034;38.910;2023-02-23T08:28:21;1.64;72.90
75688;HTU21D;64300;45.034;38.910;2023-02-23T08:30:47;1.72;79.24
75688;HTU21D;64300;45.034;38.910;2023-02-23T08:33:13;1.79;72.09
75688;HTU21D;64300;45.034;38.910;2023-02-23T08:35:39;1.94;79.04
75688;HTU21D;64300;45.034;38.910;2023-02-23T08:38:05;2.07;79.00
75688;HTU21D;64300;45.034;38.910;2023-02-23T08:40:32;2.00;67.54
75688;HTU21D;64300;45.034;38.910;2023-02-23T08:43:00;2.12;77.23
75688;HTU21D;64300;45.034;38.910;2023-02-23T08:45:25;2.05;75.83
75688;HTU21D;64300;45.034;38.910;2023-02-23T08:47:54;2.00;73.09
75688;HTU21D;64300;45.034;38.910;2023-02-23T08:50:21;2.09;75.75
75688;HTU21D;64300;45.034;38.910;2023-02-23T08:52:46;2.06;72.65
75688;HTU21D;64300;45.034;38.910;2023-02-23T08:55:12;1.97;66.36
75688;HTU21D;64300;45.034;38.910;2023-02-23T08:57:45;2.10;72.45
75688;HTU21D;64300;45.034;38.910;2023-02-23T09:00:15;2.23;73.72
75688;HTU21D;64300;45.034;38.910;2023-02-23T09:02:44;2.24;73.21
75688;HTU21D;64300;45.034;38.910;2023-02-23T09:05:12;2.21;68.13
75688;HTU21D;64300;45.034;38.910;2023-02-23T09:07:39;2.36;68.40
75688;HTU21D;64300;45.034;38.910;2023-02-23T09:10:12;2.36;68.62
75688;HTU21D;64300;45.034;38.910;2023-02-23T09:12:39;2.39;68.30
75688;HTU21D;64300;45.034;38.910;2023-02-23T09:15:05;2.46;71.03
75688;HTU21D;64300;45.034;38.910;2023-02-23T09:17:31;2.45;70.45
75688;HTU21D;64300;45.034;38.910;2023-02-23T09:19:57;2.43;70.46
75688;HTU21D;64300;45.034;38.910;2023-02-23T09:22:23;2.46;70.00
75688;HTU21D;64300;45.034;38.910;2023-02-23T09:24:48;2.50;70.12
75688;HTU21D;64300;45.034;38.910;2023-02-23T09:27:14;2.60;69.55
75688;HTU21D;64300;45.034;38.910;2023-02-23T09:29:40;2.54;68.03
75688;HTU21D;64300;45.034;38.910;2023-02-23T09:32:10;2.32;62.86
75688;HTU21D;64300;45.034;38.910;2023-02-23T09:34:36;2.31;63.27
75688;HTU21D;64300;45.034;38.910;2023-02-23T09:37:02;2.45;69.49
75688;HTU21D;64300;45.034;38.910;2023-02-23T09:39:28;2.50;69.04
75688;HTU21D;64300;45.034;38.910;2023-02-23T09:47:36;2.46;64.78
75688;HTU21D;64300;45.034;38.910;2023-02-23T09:50:16;2.54;66.65
75688;HTU21D;64300;45.034;38.910;2023-02-23T09:52:45;2.61;67.30
75688;HTU21D;64300;45.034;38.910;2023-02-23T09:55:13;2.58;65.55
75688;HTU21D;64300;45.034;38.910;2023-02-23T09:57:43;2.42;62.05
75688;HTU21D;64300;45.034;38.910;2023-02-23T10:00:30;2.50;62.85
75688;HTU21D;64300;45.034;38.910;2023-02-23T10:06:06;2.30;61.53
75688;HTU21D;64300;45.034;38.910;2023-02-23T10:08:41;2.43;65.75
75688;HTU21D;64300;45.034;38.910;2023-02-23T10:11:33;2.42;64.50
75688;HTU21D;64300;45.034;38.910;2023-02-23T10:16:53;2.45;65.07
75688;HTU21D;64300;45.034;38.910;2023-02-23T10:22:07;2.47;66.52
75688;HTU21D;64300;45.034;38.910;2023-02-23T10:24:38;2.07;62.13
75688;HTU21D;64300;45.034;38.910;2023-02-23T10:27:20;2.26;67.14
75688;HTU21D;64300;45.034;38.910;2023-02-23T10:29:55;2.17;62.45
75688;HTU21D;64300;45.034;38.910;2023-02-23T10:32:43;1.96;64.11
75688;HTU21D;64300;45.034;38.910;2023-02-23T10:35:13;2.01;64.24
75688;HTU21D;64300;45.034;38.910;2023-02-23T10:37:40;2.19;67.39
75688;HTU21D;64300;45.034;38.910;2023-02-23T10:40:06;2.00;64.54
75688;HTU21D;64300;45.034;38.910;2023-02-23T10:42:40;2.06;63.15
75688;HTU21D;64300;45.034;38.910;2023-02-23T10:45:20;2.21;65.79
75688;HTU21D;64300;45.034;38.910;2023-02-23T10:48:12;2.13;62.51
75688;HTU21D;64300;45.034;38.910;2023-02-23T10:50:55;2.06;63.76
75688;HTU21D;64300;45.034;38.910;2023-02-23T10:53:32;2.01;65.36
75688;HTU21D;64300;45.034;38.910;2023-02-23T10:58:29;2.02;67.26
75688;HTU21D;64300;45.034;38.910;2023-02-23T11:01:03;2.09;66.03
75688;HTU21D;64300;45.034;38.910;2023-02-23T11:03:40;2.15;65.48
75688;HTU21D;64300;45.034;38.910;2023-02-23T11:06:27;1.90;62.12
75688;HTU21D;64300;45.034;38.910;2023-02-23T11:08:54;2.08;65.20
75688;HTU21D;64300;45.034;38.910;2023-02-23T11:11:25;2.10;65.53
75688;HTU21D;64300;45.034;38.910;2023-02-23T11:13:54;1.76;62.70
75688;HTU21D;64300;45.034;38.910;2023-02-23T11:16:30;1.83;64.05
75688;HTU21D;64300;45.034;38.910;2023-02-23T11:19:04;1.87;65.11
75688;HTU21D;64300;45.034;38.910;2023-02-23T11:21:32;1.77;63.43
75688;HTU21D;64300;45.034;38.910;2023-02-23T11:24:21;1.95;65.55
75688;HTU21D;64300;45.034;38.910;2023-02-23T11:26:52;1.92;66.04
75688;HTU21D;64300;45.034;38.910;2023-02-23T11:29:44;1.95;65.09
75688;HTU21D;64300;45.034;38.910;2023-02-23T11:32:15;1.57;62.68
75688;HTU21D;64300;45.034;38.910;2023-02-23T11:34:42;1.53;65.67
75688;HTU21D;64300;45.034;38.910;2023-02-23T11:37:20;1.49;62.80
75688;HTU21D;64300;45.034;38.910;2023-02-23T11:42:19;1.62;65.82
75688;HTU21D;64300;45.034;38.910;2023-02-23T11:47:32;1.50;64.60
75688;HTU21D;64300;45.034;38.910;2023-02-23T11:50:00;1.50;65.49
75688;HTU21D;64300;45.034;38.910;2023-02-23T11:52:28;1.29;63.75
75688;HTU21D;64300;45.034;38.910;2023-02-23T11:54:59;1.27;63.34
75688;HTU21D;64300;45.034;38.910;2023-02-23T11:57:32;1.48;65.65
75688;HTU21D;64300;45.034;38.910;2023-02-23T12:00:07;1.28;62.63
75688;HTU21D;64300;45.034;38.910;2023-02-23T12:02:50;1.70;66.22
75688;HTU21D;64300;45.034;38.910;2023-02-23T12:10:23;1.38;66.31
75688;HTU21D;64300;45.034;38.910;2023-02-23T12:13:00;1.39;66.19
75688;HTU21D;64300;45.034;38.910;2023-02-23T12:18:29;1.46;64.56
75688;HTU21D;64300;45.034;38.910;2023-02-23T12:21:17;1.68;65.36
75688;HTU21D;64300;45.034;38.910;2023-02-23T12:23:47;1.88;67.71
75688;HTU21D;64300;45.034;38.910;2023-02-23T12:26:22;2.14;65.77
75688;HTU21D;64300;45.034;38.910;2023-02-23T12:28:52;2.17;64.76
75688;HTU21D;64300;45.034;38.910;2023-02-23T12:31:48;2.19;64.51
75688;HTU21D;64300;45.034;38.910;2023-02-23T12:37:19;1.82;63.40
75688;HTU21D;64300;45.034;38.910;2023-02-23T12:40:03;1.65;61.18
75688;HTU21D;64300;45.034;38.910;2023-02-23T12:43:00;1.46;63.50
75688;HTU21D;64300;45.034;38.910;2023-02-23T12:51:15;0.95;60.86
75688;HTU21D;64300;45.034;38.910;2023-02-23T12:53:43;1.03;63.05
75688;HTU21D;64300;45.034;38.910;2023-02-23T13:01:47;1.10;64.72
75688;HTU21D;64300;45.034;38.910;2023-02-23T13:24:10;0.60;62.80
75688;HTU21D;64300;45.034;38.910;2023-02-23T13:31:47;0.43;60.02
75688;HTU21D;64300;45.034;38.910;2023-02-23T13:34:22;0.50;60.70
75688;HTU21D;64300;45.034;38.910;2023-02-23T13:36:49;0.39;63.05
75688;HTU21D;64300;45.034;38.910;2023-02-23T13:50:49;0.35;61.96
75688;HTU21D;64300;45.034;38.910;2023-02-23T13:53:46;0.44;61.52
75688;HTU21D;64300;45.034;38.910;2023-02-23T13:56:25;0.44;62.75
75688;HTU21D;64300;45.034;38.910;2023-02-23T13:58:59;0.35;61.50
75688;HTU21D;64300;45.034;38.910;2023-02-23T14:04:01;0.30;62.79
75688;HTU21D;64300;45.034;38.910;2023-02-23T14:06:29;0.08;61.89
75688;HTU21D;64300;45.034;38.910;2023-02-23T14:09:10;0.02;62.47
75688;HTU21D;64300;45.034;38.910;2023-02-23T14:11:42;0.01;64.21
75688;HTU21D;64300;45.034;38.910;2023-02-23T14:14:36;-0.00;62.44
75688;HTU21D;64300;45.034;38.910;2023-02-23T14:20:05;-0.08;64.91
75688;HTU21D;64300;45.034;38.910;2023-02-23T14:25:43;-0.12;64.88
75688;HTU21D;64300;45.034;38.910;2023-02-23T14:31:15;-0.28;65.19
75688;HTU21D;64300;45.034;38.910;2023-02-23T14:36:28;-0.37;65.44
75688;HTU21D;64300;45.034;38.910;2023-02-23T14:39:23;-0.51;64.93
75688;HTU21D;64300;45.034;38.910;2023-02-23T14:41:55;-0.52;65.67
75688;HTU21D;64300;45.034;38.910;2023-02-23T14:44:29;-0.59;64.95
75688;HTU21D;64300;45.034;38.910;2023-02-23T14:47:16;-0.81;63.89
75688;HTU21D;64300;45.034;38.910;2023-02-23T14:52:29;-0.80;64.37
75688;HTU21D;64300;45.034;38.910;2023-02-23T14:57:42;-0.91;65.60
75688;HTU21D;64300;45.034;38.910;2023-02-23T15:02:37;-0.98;65.67
75688;HTU21D;64300;45.034;38.910;2023-02-23T15:05:33;-1.05;65.04
75688;HTU21D;64300;45.034;38.910;2023-02-23T15:08:03;-1.14;65.06
75688;HTU21D;64300;45.034;38.910;2023-02-23T15:13:08;-1.17;65.80
75688;HTU21D;64300;45.034;38.910;2023-02-23T15:15:35;-1.17;66.00
75688;HTU21D;64300;45.034;38.910;2023-02-23T15:18:29;-1.26;66.29
75688;HTU21D;64300;45.034;38.910;2023-02-23T15:21:00;-1.34;66.70
75688;HTU21D;64300;45.034;38.910;2023-02-23T15:23:33;-1.32;67.49
75688;HTU21D;64300;45.034;38.910;2023-02-23T15:26:14;-1.40;67.88
75688;HTU21D;64300;45.034;38.910;2023-02-23T15:28:41;-1.47;67.88
75688;HTU21D;64300;45.034;38.910;2023-02-23T15:31:14;-1.52;68.09
75688;HTU21D;64300;45.034;38.910;2023-02-23T15:33:46;-1.54;68.59
75688;HTU21D;64300;45.034;38.910;2023-02-23T15:36:29;-1.58;68.59
75688;HTU21D;64300;45.034;38.910;2023-02-23T15:39:02;-1.54;68.66
75688;HTU21D;64300;45.034;38.910;2023-02-23T15:41:33;-1.61;69.18
75688;HTU21D;64300;45.034;38.910;2023-02-23T15:47:34;-1.76;71.08
75688;HTU21D;64300;45.034;38.910;2023-02-23T15:50:14;-1.78;70.60
75688;HTU21D;64300;45.034;38.910;2023-02-23T15:52:48;-1.84;72.16
75688;HTU21D;64300;45.034;38.910;2023-02-23T15:55:26;-1.86;72.39
75688;HTU21D;64300;45.034;38.910;2023-02-23T15:57:57;-1.78;70.91
75688;HTU21D;64300;45.034;38.910;2023-02-23T16:00:44;-1.87;71.44
75688;HTU21D;64300;45.034;38.910;2023-02-23T16:03:34;-1.77;71.19
75688;HTU21D;64300;45.034;38.910;2023-02-23T16:06:07;-1.80;71.39
75688;HTU21D;64300;45.034;38.910;2023-02-23T16:08:33;-1.76;71.23
75688;HTU21D;64300;45.034;38.910;2023-02-23T16:16:33;-1.85;71.57
75688;HTU21D;64300;45.034;38.910;2023-02-23T16:19:00;-1.93;71.84
75688;HTU21D;64300;45.034;38.910;2023-02-23T16:21:28;-1.91;71.61
75688;HTU21D;64300;45.034;38.910;2023-02-23T16:24:04;-1.97;72.27
75688;HTU21D;64300;45.034;38.910;2023-02-23T16:26:40;-2.02;72.70
75688;HTU21D;64300;45.034;38.910;2023-02-23T16:29:13;-2.05;72.67
75688;HTU21D;64300;45.034;38.910;2023-02-23T16:31:48;-2.09;72.43
75688;HTU21D;64300;45.034;38.910;2023-02-23T16:34:25;-2.08;72.64
75688;HTU21D;64300;45.034;38.910;2023-02-23T16:37:02;-2.08;72.39
75688;HTU21D;64300;45.034;38.910;2023-02-23T16:39:30;-2.14;72.53
75688;HTU21D;64300;45.034;38.910;2023-02-23T16:41:57;-2.27;74.75
75688;HTU21D;64300;45.034;38.910;2023-02-23T16:44:25;-2.30;74.02
75688;HTU21D;64300;45.034;38.910;2023-02-23T16:49:27;-2.30;74.24
75688;HTU21D;64300;45.034;38.910;2023-02-23T16:51:58;-2.28;73.90
75688;HTU21D;64300;45.034;38.910;2023-02-23T16:54:26;-2.26;73.75
75688;HTU21D;64300;45.034;38.910;2023-02-23T16:56:54;-2.28;74.01
75688;HTU21D;64300;45.034;38.910;2023-02-23T16:59:21;-2.38;76.04
75688;HTU21D;64300;45.034;38.910;2023-02-23T17:01:48;-2.34;74.82
75688;HTU21D;64300;45.034;38.910;2023-02-23T17:04:18;-2.36;75.43
75688;HTU21D;64300;45.034;38.910;2023-02-23T17:06:46;-2.38;75.10
75688;HTU21D;64300;45.034;38.910;2023-02-23T17:09:22;-2.48;76.57
75688;HTU21D;64300;45.034;38.910;2023-02-23T17:11:48;-2.44;75.36
75688;HTU21D;64300;45.034;38.910;2023-02-23T17:14:23;-2.51;76.89
75688;HTU21D;64300;45.034;38.910;2023-02-23T17:16:50;-2.54;76.64
75688;HTU21D;64300;45.034;38.910;2023-02-23T17:19:16;-2.56;76.67
75688;HTU21D;64300;45.034;38.910;2023-02-23T17:21:44;-2.62;77.72
75688;HTU21D;64300;45.034;38.910;2023-02-23T17:24:09;-2.65;78.24
75688;HTU21D;64300;45.034;38.910;2023-02-23T17:26:35;-2.71;77.12
75688;HTU21D;64300;45.034;38.910;2023-02-23T17:29:01;-2.72;76.57
75688;HTU21D;64300;45.034;38.910;2023-02-23T17:31:27;-2.79;77.58
75688;HTU21D;64300;45.034;38.910;2023-02-23T17:33:53;-2.81;79.15
75688;HTU21D;64300;45.034;38.910;2023-02-23T17:36:19;-2.80;78.61
75688;HTU21D;64300;45.034;38.910;2023-02-23T17:38:47;-2.80;78.05
75688;HTU21D;64300;45.034;38.910;2023-02-23T17:41:18;-2.80;77.22
75688;HTU21D;64300;45.034;38.910;2023-02-23T17:43:44;-2.89;79.66
75688;HTU21D;64300;45.034;38.910;2023-02-23T17:46:10;-2.98;80.85
75688;HTU21D;64300;45.034;38.910;2023-02-23T17:48:37;-2.95;80.42
75688;HTU21D;64300;45.034;38.910;2023-02-23T17:51:09;-2.98;79.37
75688;HTU21D;64300;45.034;38.910;2023-02-23T17:53:38;-3.01;80.40
75688;HTU21D;64300;45.034;38.910;2023-02-23T17:56:05;-3.09;82.31
75688;HTU21D;64300;45.034;38.910;2023-02-23T17:58:31;-3.04;81.48
75688;HTU21D;64300;45.034;38.910;2023-02-23T18:00:59;-3.00;79.95
75688;HTU21D;64300;45.034;38.910;2023-02-23T18:03:28;-2.97;79.60
75688;HTU21D;64300;45.034;38.910;2023-02-23T18:06:03;-3.01;80.77
75688;HTU21D;64300;45.034;38.910;2023-02-23T18:08:32;-3.08;82.02
75688;HTU21D;64300;45.034;38.910;2023-02-23T18:10:58;-3.08;80.78
75688;HTU21D;64300;45.034;38.910;2023-02-23T18:13:27;-3.10;82.12